Royal Clipper — 9HA2796 — position and weather

sailwx.info

Track history (hours):
 
Tides and Currents Weather Stations Pressure Air Temp Water Temp Dewpoint Dewpoint Depression Visibility Wind Speed Wind Dir Waves Ship Positions

Royal Clipper

Last reported at 2019-Oct-22 07:55 UTC. Time now 2019-Oct-23 00:44 UTC.
Position N 38°54' E 001°28'.

Length 137 m; draft 6.2 m.

Type: Ship. MMSI: 215813000.

Date/timePositionNaut miles runAvg speedWind from/ knotsBaromVisibWave heightAir tempDewpointWater temp
2019-Oct-22 07:55N 38°54' E 001°28'511.2
2019-Oct-22 07:30N 38°54' E 001°34'4210.6
2019-Oct-22 03:31N 39°02' E 002°28'011.8
2019-Oct-22 03:30N 39°02' E 002°28'612.0
2019-Oct-22 02:59N 39°03' E 002°36'812.0
2019-Oct-22 02:19N 39°04' E 002°46'810.9
2019-Oct-22 01:33N 39°06' E 002°57'111.0
2019-Oct-22 01:29N 39°06' E 002°58'710.9
2019-Oct-22 00:52N 39°09' E 003°06'2212.0
2019-Oct-21 23:00N 39°21' E 003°29'247 8.7
2019-Oct-20 18:34N 41°11' E 008°19'86 5.5
2019-Oct-20 02:58N 41°37' E 010°09'  
2019-Oct-17 20:11N 38°48' E 015°08'4 5.1
2019-Oct-17 19:21N 38°44' E 015°12'2 5.2
2019-Oct-17 19:00N 38°42' E 015°11'3 5.6
2019-Oct-17 18:30N 38°40' E 015°11'2 4.9
2019-Oct-17 18:00N 38°37' E 015°10'2 5.0
2019-Oct-17 17:30N 38°35' E 015°09'3 5.8
2019-Oct-17 17:00N 38°33' E 015°06'3 5.2
2019-Oct-17 16:30N 38°32' E 015°03'2 4.6
2019-Oct-17 16:00N 38°30' E 015°01'2 3.9
2019-Oct-17 15:30N 38°29' E 014°60'1 2.9
2019-Oct-17 15:00N 38°28' E 014°58'0 0.3
2019-Oct-17 14:21N 38°28' E 014°58'0 0.0
2019-Oct-17 13:36N 38°28' E 014°58'0 0.0
2019-Oct-17 12:54N 38°28' E 014°58'0 0.0
2019-Oct-17 12:18N 38°28' E 014°58'0 0.0
2019-Oct-17 11:57N 38°28' E 014°58'0 0.0
2019-Oct-17 11:12N 38°28' E 014°58'0 0.0
2019-Oct-17 10:42N 38°28' E 014°58'0 0.0
2019-Oct-17 10:27N 38°28' E 014°58'0 0.0
2019-Oct-17 09:54N 38°28' E 014°58'0 0.0
2019-Oct-17 09:30N 38°28' E 014°58'0 0.0
2019-Oct-17 09:00N 38°28' E 014°58'0 0.0
2019-Oct-17 08:06N 38°28' E 014°58'0 0.0
2019-Oct-17 07:45N 38°28' E 014°58'1 3.0
2019-Oct-17 07:25N 38°28' E 014°59'4 8.5
2019-Oct-17 06:58N 38°27' E 015°04'4 8.9
2019-Oct-17 06:28N 38°27' E 015°09'4 9.0
2019-Oct-17 05:59N 38°26' E 015°15'3 6.7
2019-Oct-17 05:30N 38°26' E 015°19'0 0.7
2019-Oct-17 05:00N 38°25' E 015°19'0 0.8
2019-Oct-17 04:31N 38°25' E 015°18'2 4.6
2019-Oct-17 03:59N 38°24' E 015°21'3 7.0
2019-Oct-17 03:31N 38°23' E 015°25'4 7.7
2019-Oct-17 03:00N 38°22' E 015°29'4 8.2
2019-Oct-17 02:30N 38°21' E 015°35'5 9.2
2019-Oct-17 02:00N 38°20' E 015°40'4 8.3
2019-Oct-17 01:28N 38°16' E 015°41'4 7.7
2019-Oct-17 01:00N 38°14' E 015°37'4 8.1
2019-Oct-17 00:30N 38°10' E 015°37'4 7.3
2019-Oct-17 00:01N 38°07' E 015°36'5 9.3
2019-Oct-16 23:30N 38°02' E 015°35'9 8.8
2019-Oct-16 22:28N 37°56' E 015°26'510.0
2019-Oct-16 21:56N 37°52' E 015°22'0 0.0
2019-Oct-16 07:42N 37°52' E 015°21'2 7.6
2019-Oct-16 07:29N 37°53' E 015°23'4 8.9
2019-Oct-16 07:00N 37°57' E 015°26'5 9.6
2019-Oct-16 06:29N 38°01' E 015°29'5 9.4
2019-Oct-16 06:00N 38°05' E 015°32'510.8
2019-Oct-16 05:30N 38°10' E 015°35'510.6
2019-Oct-16 05:00N 38°15' E 015°37'5 9.3
2019-Oct-16 04:30N 38°19' E 015°40'713.8
2019-Oct-16 04:01N 38°25' E 015°37'714.2
2019-Oct-16 03:31N 38°32' E 015°34'814.0
2019-Oct-16 02:57N 38°39' E 015°30'613.4
2019-Oct-16 02:30N 38°45' E 015°28'1013.3
2019-Oct-16 01:47N 38°54' E 015°23'513.3
2019-Oct-16 01:26N 38°59' E 015°21'9512.1
2019-Oct-15 17:35N 40°28' E 014°40'1 4.6
2019-Oct-15 17:26N 40°28' E 014°40'2 4.7
2019-Oct-15 16:55N 40°31' E 014°39'4 8.9
2019-Oct-15 16:30N 40°34' E 014°38'2 3.6
2019-Oct-15 15:59N 40°36' E 014°37'2 0.2
2019-Oct-15 06:04N 40°35' E 014°35'1 9.3
2019-Oct-15 06:00N 40°35' E 014°35'2 4.6
2019-Oct-15 05:30N 40°33' E 014°33'4 7.6
2019-Oct-15 04:56N 40°30' E 014°38'1 2.1
2019-Oct-15 04:30N 40°31' E 014°38'1 1.1
2019-Oct-15 04:00N 40°32' E 014°38'0 0.8
2019-Oct-15 03:29N 40°32' E 014°38'0 0.8
2019-Oct-15 02:59N 40°32' E 014°38'0 0.8
2019-Oct-15 02:30N 40°33' E 014°37'0 0.6
2019-Oct-15 02:00N 40°33' E 014°37'0 0.6
2019-Oct-15 01:30N 40°33' E 014°37'0 0.6
2019-Oct-15 01:00N 40°34' E 014°37'1 1.0
2019-Oct-15 00:31N 40°34' E 014°37'4 8.5
2019-Oct-15 00:00N 40°33' E 014°31'5 9.6
2019-Oct-14 23:30N 40°33' E 014°25'5 9.5
2019-Oct-14 22:59N 40°33' E 014°18'4 8.9
2019-Oct-14 22:30N 40°37' E 014°18'4 8.1
2019-Oct-14 22:01N 40°39' E 014°22'1 1.0
2019-Oct-14 21:28N 40°38' E 014°23'0 0.0
2019-Oct-14 20:58N 40°38' E 014°23'0 0.0
2019-Oct-14 20:19N 40°38' E 014°23'0 0.0
2019-Oct-14 19:49N 40°38' E 014°23'0 0.0
2019-Oct-14 19:19N 40°38' E 014°23'0 0.0
2019-Oct-14 18:49N 40°38' E 014°23'0 0.0
2019-Oct-14 18:19N 40°38' E 014°23'0 0.0
2019-Oct-14 17:52N 40°38' E 014°23'0 0.0
2019-Oct-14 17:19N 40°38' E 014°23'0 0.0
2019-Oct-14 16:52N 40°38' E 014°23'0 0.0
2019-Oct-14 16:22N 40°38' E 014°23'0 0.0
2019-Oct-14 15:52N 40°38' E 014°23'0 0.0
2019-Oct-14 15:25N 40°38' E 014°23'0 0.0
2019-Oct-14 14:52N 40°38' E 014°23'0 0.0
2019-Oct-14 14:25N 40°38' E 014°23'0 0.0
2019-Oct-14 13:52N 40°38' E 014°23'0 0.0
2019-Oct-14 13:25N 40°38' E 014°23'0 0.0
2019-Oct-14 12:55N 40°38' E 014°23'0 0.0
2019-Oct-14 12:28N 40°38' E 014°23'0 0.0
2019-Oct-14 11:58N 40°38' E 014°23'0 0.0
2019-Oct-14 11:28N 40°38' E 014°23'0 0.0
2019-Oct-14 10:58N 40°38' E 014°23'0 0.0
2019-Oct-14 10:28N 40°38' E 014°23'0 0.0
2019-Oct-14 09:58N 40°38' E 014°23'0 0.0
2019-Oct-14 09:28N 40°38' E 014°23'0 0.0
2019-Oct-14 08:58N 40°38' E 014°23'0 0.0
2019-Oct-14 08:28N 40°38' E 014°23'0 0.0
2019-Oct-14 07:58N 40°38' E 014°23'0 0.0
2019-Oct-14 07:28N 40°38' E 014°23'0 0.0
2019-Oct-14 06:58N 40°38' E 014°23'0 0.0
2019-Oct-14 06:28N 40°38' E 014°23'0 0.0
2019-Oct-14 05:58N 40°38' E 014°23'0 0.0
2019-Oct-14 05:28N 40°38' E 014°23'0 0.7
2019-Oct-14 05:00N 40°39' E 014°23'4 7.6
2019-Oct-14 04:30N 40°39' E 014°18'4 8.9
2019-Oct-14 04:00N 40°39' E 014°12'4 8.9
2019-Oct-14 03:30N 40°39' E 014°06'4 8.9
2019-Oct-14 03:00N 40°39' E 014°00'4 8.8
2019-Oct-14 02:30N 40°39' E 013°54'5 8.4
2019-Oct-14 01:55N 40°40' E 013°48'4 8.9
2019-Oct-14 01:26N 40°43' E 013°44'  
Track history (hours):
 
Tides and Currents Weather Stations Pressure Air Temp Water Temp Dewpoint Dewpoint Depression Visibility Wind Speed Wind Dir Waves Ship Positions

Royal Clipper

Last reported at 2019-Oct-22 07:55 UTC. Time now 2019-Oct-23 00:44 UTC.
Position N 38°54' E 001°28'.

Length 137 m; draft 6.2 m.

Type: Ship. MMSI: 215813000.

Date/timePositionNaut miles runAvg speedWind from/ knotsBaromVisibWave heightAir tempDewpointWater temp
2019-Oct-22 07:55N 38°54' E 001°28'511.2
2019-Oct-22 07:30N 38°54' E 001°34'4210.6
2019-Oct-22 03:31N 39°02' E 002°28'011.8
2019-Oct-22 03:30N 39°02' E 002°28'612.0
2019-Oct-22 02:59N 39°03' E 002°36'812.0
2019-Oct-22 02:19N 39°04' E 002°46'810.9
2019-Oct-22 01:33N 39°06' E 002°57'111.0
2019-Oct-22 01:29N 39°06' E 002°58'710.9
2019-Oct-22 00:52N 39°09' E 003°06'2212.0
2019-Oct-21 23:00N 39°21' E 003°29'247 8.7
2019-Oct-20 18:34N 41°11' E 008°19'86 5.5
2019-Oct-20 02:58N 41°37' E 010°09'  
2019-Oct-17 20:11N 38°48' E 015°08'4 5.1
2019-Oct-17 19:21N 38°44' E 015°12'2 5.2
2019-Oct-17 19:00N 38°42' E 015°11'3 5.6
2019-Oct-17 18:30N 38°40' E 015°11'2 4.9
2019-Oct-17 18:00N 38°37' E 015°10'2 5.0
2019-Oct-17 17:30N 38°35' E 015°09'3 5.8
2019-Oct-17 17:00N 38°33' E 015°06'3 5.2
2019-Oct-17 16:30N 38°32' E 015°03'2 4.6
2019-Oct-17 16:00N 38°30' E 015°01'2 3.9
2019-Oct-17 15:30N 38°29' E 014°60'1 2.9
2019-Oct-17 15:00N 38°28' E 014°58'0 0.3
2019-Oct-17 14:21N 38°28' E 014°58'0 0.0
2019-Oct-17 13:36N 38°28' E 014°58'0 0.0
2019-Oct-17 12:54N 38°28' E 014°58'0 0.0
2019-Oct-17 12:18N 38°28' E 014°58'0 0.0
2019-Oct-17 11:57N 38°28' E 014°58'0 0.0
2019-Oct-17 11:12N 38°28' E 014°58'0 0.0
2019-Oct-17 10:42N 38°28' E 014°58'0 0.0
2019-Oct-17 10:27N 38°28' E 014°58'0 0.0
2019-Oct-17 09:54N 38°28' E 014°58'0 0.0
2019-Oct-17 09:30N 38°28' E 014°58'0 0.0
2019-Oct-17 09:00N 38°28' E 014°58'0 0.0
2019-Oct-17 08:06N 38°28' E 014°58'0 0.0
2019-Oct-17 07:45N 38°28' E 014°58'1 3.0
2019-Oct-17 07:25N 38°28' E 014°59'4 8.5
2019-Oct-17 06:58N 38°27' E 015°04'4 8.9
2019-Oct-17 06:28N 38°27' E 015°09'4 9.0
2019-Oct-17 05:59N 38°26' E 015°15'3 6.7
2019-Oct-17 05:30N 38°26' E 015°19'0 0.7
2019-Oct-17 05:00N 38°25' E 015°19'0 0.8
2019-Oct-17 04:31N 38°25' E 015°18'2 4.6
2019-Oct-17 03:59N 38°24' E 015°21'3 7.0
2019-Oct-17 03:31N 38°23' E 015°25'4 7.7
2019-Oct-17 03:00N 38°22' E 015°29'4 8.2
2019-Oct-17 02:30N 38°21' E 015°35'5 9.2
2019-Oct-17 02:00N 38°20' E 015°40'4 8.3
2019-Oct-17 01:28N 38°16' E 015°41'4 7.7
2019-Oct-17 01:00N 38°14' E 015°37'4 8.1
2019-Oct-17 00:30N 38°10' E 015°37'4 7.3
2019-Oct-17 00:01N 38°07' E 015°36'5 9.3
2019-Oct-16 23:30N 38°02' E 015°35'9 8.8
2019-Oct-16 22:28N 37°56' E 015°26'510.0
2019-Oct-16 21:56N 37°52' E 015°22'0 0.0
2019-Oct-16 07:42N 37°52' E 015°21'2 7.6
2019-Oct-16 07:29N 37°53' E 015°23'4 8.9
2019-Oct-16 07:00N 37°57' E 015°26'5 9.6
2019-Oct-16 06:29N 38°01' E 015°29'5 9.4
2019-Oct-16 06:00N 38°05' E 015°32'510.8
2019-Oct-16 05:30N 38°10' E 015°35'510.6
2019-Oct-16 05:00N 38°15' E 015°37'5 9.3
2019-Oct-16 04:30N 38°19' E 015°40'713.8
2019-Oct-16 04:01N 38°25' E 015°37'714.2
2019-Oct-16 03:31N 38°32' E 015°34'814.0
2019-Oct-16 02:57N 38°39' E 015°30'613.4
2019-Oct-16 02:30N 38°45' E 015°28'1013.3
2019-Oct-16 01:47N 38°54' E 015°23'513.3
2019-Oct-16 01:26N 38°59' E 015°21'9512.1
2019-Oct-15 17:35N 40°28' E 014°40'1 4.6
2019-Oct-15 17:26N 40°28' E 014°40'2 4.7
2019-Oct-15 16:55N 40°31' E 014°39'4 8.9
2019-Oct-15 16:30N 40°34' E 014°38'2 3.6
2019-Oct-15 15:59N 40°36' E 014°37'2 0.2
2019-Oct-15 06:04N 40°35' E 014°35'1 9.3
2019-Oct-15 06:00N 40°35' E 014°35'2 4.6
2019-Oct-15 05:30N 40°33' E 014°33'4 7.6
2019-Oct-15 04:56N 40°30' E 014°38'1 2.1
2019-Oct-15 04:30N 40°31' E 014°38'1 1.1
2019-Oct-15 04:00N 40°32' E 014°38'0 0.8
2019-Oct-15 03:29N 40°32' E 014°38'0 0.8
2019-Oct-15 02:59N 40°32' E 014°38'0 0.8
2019-Oct-15 02:30N 40°33' E 014°37'0 0.6
2019-Oct-15 02:00N 40°33' E 014°37'0 0.6
2019-Oct-15 01:30N 40°33' E 014°37'0 0.6
2019-Oct-15 01:00N 40°34' E 014°37'1 1.0
2019-Oct-15 00:31N 40°34' E 014°37'4 8.5
2019-Oct-15 00:00N 40°33' E 014°31'5 9.6
2019-Oct-14 23:30N 40°33' E 014°25'5 9.5
2019-Oct-14 22:59N 40°33' E 014°18'4 8.9
2019-Oct-14 22:30N 40°37' E 014°18'4 8.1
2019-Oct-14 22:01N 40°39' E 014°22'1 1.0
2019-Oct-14 21:28N 40°38' E 014°23'0 0.0
2019-Oct-14 20:58N 40°38' E 014°23'0 0.0
2019-Oct-14 20:19N 40°38' E 014°23'0 0.0
2019-Oct-14 19:49N 40°38' E 014°23'0 0.0
2019-Oct-14 19:19N 40°38' E 014°23'0 0.0
2019-Oct-14 18:49N 40°38' E 014°23'0 0.0
2019-Oct-14 18:19N 40°38' E 014°23'0 0.0
2019-Oct-14 17:52N 40°38' E 014°23'0 0.0
2019-Oct-14 17:19N 40°38' E 014°23'0 0.0
2019-Oct-14 16:52N 40°38' E 014°23'0 0.0
2019-Oct-14 16:22N 40°38' E 014°23'0 0.0
2019-Oct-14 15:52N 40°38' E 014°23'0 0.0
2019-Oct-14 15:25N 40°38' E 014°23'0 0.0
2019-Oct-14 14:52N 40°38' E 014°23'0 0.0
2019-Oct-14 14:25N 40°38' E 014°23'0 0.0
2019-Oct-14 13:52N 40°38' E 014°23'0 0.0
2019-Oct-14 13:25N 40°38' E 014°23'0 0.0
2019-Oct-14 12:55N 40°38' E 014°23'0 0.0
2019-Oct-14 12:28N 40°38' E 014°23'0 0.0
2019-Oct-14 11:58N 40°38' E 014°23'0 0.0
2019-Oct-14 11:28N 40°38' E 014°23'0 0.0
2019-Oct-14 10:58N 40°38' E 014°23'0 0.0
2019-Oct-14 10:28N 40°38' E 014°23'0 0.0
2019-Oct-14 09:58N 40°38' E 014°23'0 0.0
2019-Oct-14 09:28N 40°38' E 014°23'0 0.0
2019-Oct-14 08:58N 40°38' E 014°23'0 0.0
2019-Oct-14 08:28N 40°38' E 014°23'0 0.0
2019-Oct-14 07:58N 40°38' E 014°23'0 0.0
2019-Oct-14 07:28N 40°38' E 014°23'0 0.0
2019-Oct-14 06:58N 40°38' E 014°23'0 0.0
2019-Oct-14 06:28N 40°38' E 014°23'0 0.0
2019-Oct-14 05:58N 40°38' E 014°23'0 0.0
2019-Oct-14 05:28N 40°38' E 014°23'0 0.7
2019-Oct-14 05:00N 40°39' E 014°23'4 7.6
2019-Oct-14 04:30N 40°39' E 014°18'4 8.9
2019-Oct-14 04:00N 40°39' E 014°12'4 8.9
2019-Oct-14 03:30N 40°39' E 014°06'4 8.9
2019-Oct-14 03:00N 40°39' E 014°00'4 8.8
2019-Oct-14 02:30N 40°39' E 013°54'5 8.4
2019-Oct-14 01:55N 40°40' E 013°48'4 8.9
2019-Oct-14 01:26N 40°43' E 013°44'  

Dump ship's entire track history